sensor_id;sensor_type;location;lat;lon;timestamp;temperature;humidity
4107;DHT22;21906;50.812;7.132;2022-09-28T00:00:26;11.50;80.70
4107;DHT22;21906;50.812;7.132;2022-09-28T00:02:55;11.60;80.60
4107;DHT22;21906;50.812;7.132;2022-09-28T00:05:22;11.60;80.50
4107;DHT22;21906;50.812;7.132;2022-09-28T00:07:52;11.50;80.60
4107;DHT22;21906;50.812;7.132;2022-09-28T00:10:18;11.50;80.70
4107;DHT22;21906;50.812;7.132;2022-09-28T00:12:50;11.50;80.70
4107;DHT22;21906;50.812;7.132;2022-09-28T00:15:17;11.50;80.60
4107;DHT22;21906;50.812;7.132;2022-09-28T00:17:43;11.50;80.80
4107;DHT22;21906;50.812;7.132;2022-09-28T00:20:11;11.40;80.80
4107;DHT22;21906;50.812;7.132;2022-09-28T00:22:37;11.50;80.70
4107;DHT22;21906;50.812;7.132;2022-09-28T00:25:05;11.40;80.90
4107;DHT22;21906;50.812;7.132;2022-09-28T00:27:31;11.40;81.10
4107;DHT22;21906;50.812;7.132;2022-09-28T00:29:57;11.40;81.10
4107;DHT22;21906;50.812;7.132;2022-09-28T00:32:22;11.40;81.10
4107;DHT22;21906;50.812;7.132;2022-09-28T00:34:50;11.40;81.40
4107;DHT22;21906;50.812;7.132;2022-09-28T00:37:16;11.40;81.70
4107;DHT22;21906;50.812;7.132;2022-09-28T00:39:44;11.40;81.70
4107;DHT22;21906;50.812;7.132;2022-09-28T00:42:21;11.40;81.80
4107;DHT22;21906;50.812;7.132;2022-09-28T00:44:50;11.40;81.90
4107;DHT22;21906;50.812;7.132;2022-09-28T00:50:05;11.30;81.00
4107;DHT22;21906;50.812;7.132;2022-09-28T00:52:47;11.30;80.20
4107;DHT22;21906;50.812;7.132;2022-09-28T00:55:16;11.30;79.60
4107;DHT22;21906;50.812;7.132;2022-09-28T00:57:50;11.20;80.10
4107;DHT22;21906;50.812;7.132;2022-09-28T01:00:17;11.30;79.70
4107;DHT22;21906;50.812;7.132;2022-09-28T01:02:43;11.20;79.80
4107;DHT22;21906;50.812;7.132;2022-09-28T01:05:10;11.20;80.10
4107;DHT22;21906;50.812;7.132;2022-09-28T01:07:37;11.20;80.10
4107;DHT22;21906;50.812;7.132;2022-09-28T01:10:04;11.10;79.60
4107;DHT22;21906;50.812;7.132;2022-09-28T01:12:30;11.10;79.30
4107;DHT22;21906;50.812;7.132;2022-09-28T01:14:57;11.00;79.20
4107;DHT22;21906;50.812;7.132;2022-09-28T01:17:24;11.10;79.20
4107;DHT22;21906;50.812;7.132;2022-09-28T01:23:17;11.00;78.90
4107;DHT22;21906;50.812;7.132;2022-09-28T01:28:39;11.00;79.90
4107;DHT22;21906;50.812;7.132;2022-09-28T01:31:11;11.00;80.00
4107;DHT22;21906;50.812;7.132;2022-09-28T01:34:00;10.90;79.90
4107;DHT22;21906;50.812;7.132;2022-09-28T01:36:43;10.90;80.30
4107;DHT22;21906;50.812;7.132;2022-09-28T01:39:15;10.90;80.40
4107;DHT22;21906;50.812;7.132;2022-09-28T01:41:44;10.90;79.60
4107;DHT22;21906;50.812;7.132;2022-09-28T01:44:14;10.90;79.70
4107;DHT22;21906;50.812;7.132;2022-09-28T01:46:44;10.90;79.70
4107;DHT22;21906;50.812;7.132;2022-09-28T01:49:27;11.00;79.90
4107;DHT22;21906;50.812;7.132;2022-09-28T01:52:18;10.90;79.90
4107;DHT22;21906;50.812;7.132;2022-09-28T01:54:52;10.90;79.90
4107;DHT22;21906;50.812;7.132;2022-09-28T02:00:35;10.90;80.30
4107;DHT22;21906;50.812;7.132;2022-09-28T02:03:12;10.90;80.40
4107;DHT22;21906;50.812;7.132;2022-09-28T02:05:46;10.90;80.40
4107;DHT22;21906;50.812;7.132;2022-09-28T02:08:12;10.90;80.30
4107;DHT22;21906;50.812;7.132;2022-09-28T02:10:48;10.90;80.00
4107;DHT22;21906;50.812;7.132;2022-09-28T02:13:18;10.90;80.00
4107;DHT22;21906;50.812;7.132;2022-09-28T02:18:13;10.70;80.50
4107;DHT22;21906;50.812;7.132;2022-09-28T02:20:40;10.80;80.40
4107;DHT22;21906;50.812;7.132;2022-09-28T02:23:12;10.80;80.50
4107;DHT22;21906;50.812;7.132;2022-09-28T02:25:44;10.90;80.40
4107;DHT22;21906;50.812;7.132;2022-09-28T02:28:12;10.80;80.40
4107;DHT22;21906;50.812;7.132;2022-09-28T02:30:41;10.90;80.50
4107;DHT22;21906;50.812;7.132;2022-09-28T02:33:19;10.90;80.00
4107;DHT22;21906;50.812;7.132;2022-09-28T02:35:46;10.90;80.20
4107;DHT22;21906;50.812;7.132;2022-09-28T02:38:13;10.90;80.20
4107;DHT22;21906;50.812;7.132;2022-09-28T02:40:39;10.90;79.60
4107;DHT22;21906;50.812;7.132;2022-09-28T02:43:39;10.90;79.80
4107;DHT22;21906;50.812;7.132;2022-09-28T03:00:30;10.80;79.80
4107;DHT22;21906;50.812;7.132;2022-09-28T03:03:23;10.80;80.10
4107;DHT22;21906;50.812;7.132;2022-09-28T03:11:31;10.70;80.40
4107;DHT22;21906;50.812;7.132;2022-09-28T03:13:58;10.80;80.30
4107;DHT22;21906;50.812;7.132;2022-09-28T03:16:25;10.90;80.40
4107;DHT22;21906;50.812;7.132;2022-09-28T03:18:52;10.90;80.20
4107;DHT22;21906;50.812;7.132;2022-09-28T03:21:17;10.90;80.20
4107;DHT22;21906;50.812;7.132;2022-09-28T03:23:43;10.90;80.30
4107;DHT22;21906;50.812;7.132;2022-09-28T03:26:12;10.90;80.30
4107;DHT22;21906;50.812;7.132;2022-09-28T03:28:39;10.90;79.90
4107;DHT22;21906;50.812;7.132;2022-09-28T03:31:05;10.90;79.80
4107;DHT22;21906;50.812;7.132;2022-09-28T03:33:30;10.70;80.10
4107;DHT22;21906;50.812;7.132;2022-09-28T03:35:56;10.70;80.20
4107;DHT22;21906;50.812;7.132;2022-09-28T03:38:22;10.80;80.30
4107;DHT22;21906;50.812;7.132;2022-09-28T03:40:58;10.70;80.30
4107;DHT22;21906;50.812;7.132;2022-09-28T03:43:25;10.60;80.90
4107;DHT22;21906;50.812;7.132;2022-09-28T03:45:57;10.60;80.60
4107;DHT22;21906;50.812;7.132;2022-09-28T03:48:34;10.70;80.50
4107;DHT22;21906;50.812;7.132;2022-09-28T03:51:02;10.80;80.40
4107;DHT22;21906;50.812;7.132;2022-09-28T03:53:28;10.70;80.30
4107;DHT22;21906;50.812;7.132;2022-09-28T03:55:54;10.70;80.10
4107;DHT22;21906;50.812;7.132;2022-09-28T03:58:21;10.70;80.40
4107;DHT22;21906;50.812;7.132;2022-09-28T04:00:50;10.80;80.10
4107;DHT22;21906;50.812;7.132;2022-09-28T04:03:16;10.90;79.70
4107;DHT22;21906;50.812;7.132;2022-09-28T04:05:49;10.90;79.10
4107;DHT22;21906;50.812;7.132;2022-09-28T04:08:15;10.80;79.50
4107;DHT22;21906;50.812;7.132;2022-09-28T04:10:40;10.70;79.70
4107;DHT22;21906;50.812;7.132;2022-09-28T04:13:06;10.70;79.70
4107;DHT22;21906;50.812;7.132;2022-09-28T04:15:31;10.70;79.40
4107;DHT22;21906;50.812;7.132;2022-09-28T04:17:57;10.80;79.50
4107;DHT22;21906;50.812;7.132;2022-09-28T04:20:23;10.70;79.30
4107;DHT22;21906;50.812;7.132;2022-09-28T04:22:48;10.70;79.50
4107;DHT22;21906;50.812;7.132;2022-09-28T04:25:15;10.80;79.00
4107;DHT22;21906;50.812;7.132;2022-09-28T04:27:41;10.70;79.40
4107;DHT22;21906;50.812;7.132;2022-09-28T04:30:35;10.70;79.70
4107;DHT22;21906;50.812;7.132;2022-09-28T04:33:01;10.60;79.60
4107;DHT22;21906;50.812;7.132;2022-09-28T04:35:27;10.60;80.40
4107;DHT22;21906;50.812;7.132;2022-09-28T04:37:52;10.60;80.40
4107;DHT22;21906;50.812;7.132;2022-09-28T04:40:18;10.50;79.90
4107;DHT22;21906;50.812;7.132;2022-09-28T04:42:43;10.50;80.20
4107;DHT22;21906;50.812;7.132;2022-09-28T04:45:09;10.60;79.70
4107;DHT22;21906;50.812;7.132;2022-09-28T04:47:35;10.60;79.60
4107;DHT22;21906;50.812;7.132;2022-09-28T04:50:00;10.60;79.60
4107;DHT22;21906;50.812;7.132;2022-09-28T04:52:26;10.50;79.80
4107;DHT22;21906;50.812;7.132;2022-09-28T04:54:52;10.50;79.90
4107;DHT22;21906;50.812;7.132;2022-09-28T04:57:17;10.50;80.70
4107;DHT22;21906;50.812;7.132;2022-09-28T04:59:43;10.40;81.10
4107;DHT22;21906;50.812;7.132;2022-09-28T05:02:09;10.50;81.00
4107;DHT22;21906;50.812;7.132;2022-09-28T05:04:36;10.50;81.00
4107;DHT22;21906;50.812;7.132;2022-09-28T05:07:01;10.50;80.90
4107;DHT22;21906;50.812;7.132;2022-09-28T05:09:27;10.60;81.00
4107;DHT22;21906;50.812;7.132;2022-09-28T05:11:53;10.70;80.40
4107;DHT22;21906;50.812;7.132;2022-09-28T05:14:19;10.60;80.50
4107;DHT22;21906;50.812;7.132;2022-09-28T05:16:47;10.70;80.30
4107;DHT22;21906;50.812;7.132;2022-09-28T05:19:12;10.60;80.40
4107;DHT22;21906;50.812;7.132;2022-09-28T05:21:38;10.60;80.50
4107;DHT22;21906;50.812;7.132;2022-09-28T05:24:05;10.50;80.30
4107;DHT22;21906;50.812;7.132;2022-09-28T05:26:32;10.50;80.50
4107;DHT22;21906;50.812;7.132;2022-09-28T05:28:58;10.50;80.80
4107;DHT22;21906;50.812;7.132;2022-09-28T05:31:24;10.50;80.70
4107;DHT22;21906;50.812;7.132;2022-09-28T05:33:51;10.70;80.10
4107;DHT22;21906;50.812;7.132;2022-09-28T05:36:18;10.70;79.80
4107;DHT22;21906;50.812;7.132;2022-09-28T05:38:44;10.60;79.90
4107;DHT22;21906;50.812;7.132;2022-09-28T05:41:10;10.60;79.90
4107;DHT22;21906;50.812;7.132;2022-09-28T05:43:36;10.60;80.00
4107;DHT22;21906;50.812;7.132;2022-09-28T05:46:03;10.50;80.40
4107;DHT22;21906;50.812;7.132;2022-09-28T05:48:29;10.50;80.30
4107;DHT22;21906;50.812;7.132;2022-09-28T05:50:55;10.40;80.70
4107;DHT22;21906;50.812;7.132;2022-09-28T05:53:23;10.50;80.60
4107;DHT22;21906;50.812;7.132;2022-09-28T05:55:49;10.50;80.20
4107;DHT22;21906;50.812;7.132;2022-09-28T05:58:15;10.50;80.50
4107;DHT22;21906;50.812;7.132;2022-09-28T06:00:41;10.60;80.30
4107;DHT22;21906;50.812;7.132;2022-09-28T06:03:10;10.50;80.20
4107;DHT22;21906;50.812;7.132;2022-09-28T06:05:37;10.50;80.60
4107;DHT22;21906;50.812;7.132;2022-09-28T06:08:05;10.40;80.90
4107;DHT22;21906;50.812;7.132;2022-09-28T06:10:31;10.60;80.30
4107;DHT22;21906;50.812;7.132;2022-09-28T06:12:57;10.60;80.00
4107;DHT22;21906;50.812;7.132;2022-09-28T06:15:25;10.60;80.10
4107;DHT22;21906;50.812;7.132;2022-09-28T06:18:04;10.70;80.10
4107;DHT22;21906;50.812;7.132;2022-09-28T06:20:33;10.60;80.30
4107;DHT22;21906;50.812;7.132;2022-09-28T06:22:59;10.70;79.80
4107;DHT22;21906;50.812;7.132;2022-09-28T06:25:25;10.70;79.80
4107;DHT22;21906;50.812;7.132;2022-09-28T06:28:00;10.70;79.50
4107;DHT22;21906;50.812;7.132;2022-09-28T06:30:27;10.70;79.30
4107;DHT22;21906;50.812;7.132;2022-09-28T06:32:57;10.80;79.10
4107;DHT22;21906;50.812;7.132;2022-09-28T06:35:24;10.80;79.50
4107;DHT22;21906;50.812;7.132;2022-09-28T06:37:51;10.80;79.20
4107;DHT22;21906;50.812;7.132;2022-09-28T06:40:17;10.80;79.20
4107;DHT22;21906;50.812;7.132;2022-09-28T06:42:43;10.70;79.30
4107;DHT22;21906;50.812;7.132;2022-09-28T06:45:09;10.80;79.40
4107;DHT22;21906;50.812;7.132;2022-09-28T06:47:36;10.80;78.80
4107;DHT22;21906;50.812;7.132;2022-09-28T06:50:03;10.80;78.50
4107;DHT22;21906;50.812;7.132;2022-09-28T06:52:28;10.70;78.60
4107;DHT22;21906;50.812;7.132;2022-09-28T06:54:54;10.70;78.20
4107;DHT22;21906;50.812;7.132;2022-09-28T06:57:20;10.70;78.80
4107;DHT22;21906;50.812;7.132;2022-09-28T06:59:45;10.80;78.60
4107;DHT22;21906;50.812;7.132;2022-09-28T07:02:11;10.70;78.30
4107;DHT22;21906;50.812;7.132;2022-09-28T07:04:40;10.70;78.90
4107;DHT22;21906;50.812;7.132;2022-09-28T07:07:08;10.80;78.70
4107;DHT22;21906;50.812;7.132;2022-09-28T07:09:35;10.80;78.90
4107;DHT22;21906;50.812;7.132;2022-09-28T07:12:02;10.80;77.80
4107;DHT22;21906;50.812;7.132;2022-09-28T07:14:31;10.80;77.50
4107;DHT22;21906;50.812;7.132;2022-09-28T07:16:57;10.90;78.00
4107;DHT22;21906;50.812;7.132;2022-09-28T07:19:23;10.80;77.80
4107;DHT22;21906;50.812;7.132;2022-09-28T07:21:50;10.90;77.10
4107;DHT22;21906;50.812;7.132;2022-09-28T07:24:17;11.00;76.70
4107;DHT22;21906;50.812;7.132;2022-09-28T07:26:43;10.90;77.00
4107;DHT22;21906;50.812;7.132;2022-09-28T07:29:10;10.90;77.10
4107;DHT22;21906;50.812;7.132;2022-09-28T07:31:36;10.90;77.20
4107;DHT22;21906;50.812;7.132;2022-09-28T07:34:02;10.90;77.20
4107;DHT22;21906;50.812;7.132;2022-09-28T07:36:28;10.90;77.70
4107;DHT22;21906;50.812;7.132;2022-09-28T07:38:54;11.00;77.40
4107;DHT22;21906;50.812;7.132;2022-09-28T07:41:20;11.00;76.40
4107;DHT22;21906;50.812;7.132;2022-09-28T07:44:00;11.10;76.50
4107;DHT22;21906;50.812;7.132;2022-09-28T07:46:34;11.00;76.30
4107;DHT22;21906;50.812;7.132;2022-09-28T07:49:00;11.00;76.40
4107;DHT22;21906;50.812;7.132;2022-09-28T07:51:26;11.10;76.50
4107;DHT22;21906;50.812;7.132;2022-09-28T07:53:51;11.10;75.70
4107;DHT22;21906;50.812;7.132;2022-09-28T07:56:20;11.10;76.10
4107;DHT22;21906;50.812;7.132;2022-09-28T07:58:47;11.10;76.70
4107;DHT22;21906;50.812;7.132;2022-09-28T08:01:13;11.20;75.90
4107;DHT22;21906;50.812;7.132;2022-09-28T08:03:43;11.20;75.40
4107;DHT22;21906;50.812;7.132;2022-09-28T08:06:11;11.20;75.20
4107;DHT22;21906;50.812;7.132;2022-09-28T08:08:38;11.30;75.70
4107;DHT22;21906;50.812;7.132;2022-09-28T08:11:08;11.40;75.70
4107;DHT22;21906;50.812;7.132;2022-09-28T08:13:35;11.40;75.80
4107;DHT22;21906;50.812;7.132;2022-09-28T08:16:02;11.50;75.10
4107;DHT22;21906;50.812;7.132;2022-09-28T08:18:29;11.40;75.40
4107;DHT22;21906;50.812;7.132;2022-09-28T08:20:55;11.50;75.10
4107;DHT22;21906;50.812;7.132;2022-09-28T08:23:40;11.60;75.00
4107;DHT22;21906;50.812;7.132;2022-09-28T08:26:06;11.70;74.90
4107;DHT22;21906;50.812;7.132;2022-09-28T08:28:32;11.90;73.80
4107;DHT22;21906;50.812;7.132;2022-09-28T08:31:00;11.90;73.20
4107;DHT22;21906;50.812;7.132;2022-09-28T08:33:26;12.00;73.20
4107;DHT22;21906;50.812;7.132;2022-09-28T08:35:57;12.10;73.10
4107;DHT22;21906;50.812;7.132;2022-09-28T08:38:24;12.10;73.40
4107;DHT22;21906;50.812;7.132;2022-09-28T08:46:44;12.10;72.60
4107;DHT22;21906;50.812;7.132;2022-09-28T08:51:50;11.90;72.80
4107;DHT22;21906;50.812;7.132;2022-09-28T08:54:25;11.80;73.20
4107;DHT22;21906;50.812;7.132;2022-09-28T08:57:06;11.90;73.80
4107;DHT22;21906;50.812;7.132;2022-09-28T08:59:48;12.00;73.50
4107;DHT22;21906;50.812;7.132;2022-09-28T09:04:45;12.10;71.90
4107;DHT22;21906;50.812;7.132;2022-09-28T09:24:29;12.30;70.50
4107;DHT22;21906;50.812;7.132;2022-09-28T09:30:05;12.40;70.20
4107;DHT22;21906;50.812;7.132;2022-09-28T09:35:46;12.50;70.10
4107;DHT22;21906;50.812;7.132;2022-09-28T09:38:55;12.50;69.90
4107;DHT22;21906;50.812;7.132;2022-09-28T09:47:03;12.70;69.30
4107;DHT22;21906;50.812;7.132;2022-09-28T09:49:54;12.80;68.70
4107;DHT22;21906;50.812;7.132;2022-09-28T09:52:39;12.90;68.60
4107;DHT22;21906;50.812;7.132;2022-09-28T09:55:17;12.90;69.40
4107;DHT22;21906;50.812;7.132;2022-09-28T09:58:09;12.90;68.70
4107;DHT22;21906;50.812;7.132;2022-09-28T10:00:47;12.90;68.50
4107;DHT22;21906;50.812;7.132;2022-09-28T10:03:35;13.00;68.50
4107;DHT22;21906;50.812;7.132;2022-09-28T10:06:10;13.20;67.20
4107;DHT22;21906;50.812;7.132;2022-09-28T10:09:04;13.20;66.80
4107;DHT22;21906;50.812;7.132;2022-09-28T10:11:37;13.30;66.70
4107;DHT22;21906;50.812;7.132;2022-09-28T10:14:05;13.30;67.70
4107;DHT22;21906;50.812;7.132;2022-09-28T10:16:33;13.50;67.00
4107;DHT22;21906;50.812;7.132;2022-09-28T10:18:59;13.50;67.40
4107;DHT22;21906;50.812;7.132;2022-09-28T10:21:25;13.60;66.40
4107;DHT22;21906;50.812;7.132;2022-09-28T10:23:58;13.80;64.10
4107;DHT22;21906;50.812;7.132;2022-09-28T10:26:31;13.90;63.90
4107;DHT22;21906;50.812;7.132;2022-09-28T10:29:09;13.90;62.30
4107;DHT22;21906;50.812;7.132;2022-09-28T10:31:47;13.80;63.50
4107;DHT22;21906;50.812;7.132;2022-09-28T10:34:16;13.80;64.20
4107;DHT22;21906;50.812;7.132;2022-09-28T10:36:55;13.70;63.90
4107;DHT22;21906;50.812;7.132;2022-09-28T10:42:04;13.70;63.90
4107;DHT22;21906;50.812;7.132;2022-09-28T10:44:32;13.50;64.40
4107;DHT22;21906;50.812;7.132;2022-09-28T10:47:01;13.50;64.00
4107;DHT22;21906;50.812;7.132;2022-09-28T10:49:35;13.40;64.40
4107;DHT22;21906;50.812;7.132;2022-09-28T10:52:03;13.50;64.50
4107;DHT22;21906;50.812;7.132;2022-09-28T10:54:30;13.50;64.40
4107;DHT22;21906;50.812;7.132;2022-09-28T10:56:57;13.50;63.30
4107;DHT22;21906;50.812;7.132;2022-09-28T11:02:13;13.40;61.60
4107;DHT22;21906;50.812;7.132;2022-09-28T11:04:42;13.50;65.70
4107;DHT22;21906;50.812;7.132;2022-09-28T11:07:25;13.50;64.70
4107;DHT22;21906;50.812;7.132;2022-09-28T11:09:52;13.80;62.80
4107;DHT22;21906;50.812;7.132;2022-09-28T11:12:24;14.00;63.60
4107;DHT22;21906;50.812;7.132;2022-09-28T11:15:00;14.30;61.80
4107;DHT22;21906;50.812;7.132;2022-09-28T11:17:36;14.40;60.00
4107;DHT22;21906;50.812;7.132;2022-09-28T11:22:57;14.90;59.00
4107;DHT22;21906;50.812;7.132;2022-09-28T11:25:27;15.00;59.10
4107;DHT22;21906;50.812;7.132;2022-09-28T11:30:23;15.30;57.10
4107;DHT22;21906;50.812;7.132;2022-09-28T11:32:51;15.40;56.20
4107;DHT22;21906;50.812;7.132;2022-09-28T11:35:27;15.20;57.80
4107;DHT22;21906;50.812;7.132;2022-09-28T11:38:25;15.20;57.80
4107;DHT22;21906;50.812;7.132;2022-09-28T11:43:47;15.30;59.00
4107;DHT22;21906;50.812;7.132;2022-09-28T11:48:52;15.70;57.70
4107;DHT22;21906;50.812;7.132;2022-09-28T11:51:39;15.70;57.60
4107;DHT22;21906;50.812;7.132;2022-09-28T11:54:37;15.50;56.90
4107;DHT22;21906;50.812;7.132;2022-09-28T11:57:07;15.10;58.50
4107;DHT22;21906;50.812;7.132;2022-09-28T12:00:01;14.90;59.10
4107;DHT22;21906;50.812;7.132;2022-09-28T12:02:40;14.90;58.80
4107;DHT22;21906;50.812;7.132;2022-09-28T12:05:33;14.90;58.40
4107;DHT22;21906;50.812;7.132;2022-09-28T12:13:43;14.90;59.60
4107;DHT22;21906;50.812;7.132;2022-09-28T12:16:29;14.90;59.60
4107;DHT22;21906;50.812;7.132;2022-09-28T12:19:05;14.90;58.10
4107;DHT22;21906;50.812;7.132;2022-09-28T12:24:05;15.20;56.70
4107;DHT22;21906;50.812;7.132;2022-09-28T12:27:02;15.20;58.00
4107;DHT22;21906;50.812;7.132;2022-09-28T12:29:58;15.00;58.20
4107;DHT22;21906;50.812;7.132;2022-09-28T12:32:47;14.90;58.00
4107;DHT22;21906;50.812;7.132;2022-09-28T12:35:43;14.90;58.10
4107;DHT22;21906;50.812;7.132;2022-09-28T12:51:51;14.60;59.80
4107;DHT22;21906;50.812;7.132;2022-09-28T13:00:07;14.50;59.30
4107;DHT22;21906;50.812;7.132;2022-09-28T13:08:54;14.40;60.30
4107;DHT22;21906;50.812;7.132;2022-09-28T13:25:12;14.30;60.10
4107;DHT22;21906;50.812;7.132;2022-09-28T13:27:42;14.40;60.60
4107;DHT22;21906;50.812;7.132;2022-09-28T13:30:14;14.40;60.80
4107;DHT22;21906;50.812;7.132;2022-09-28T13:32:42;14.40;60.40
4107;DHT22;21906;50.812;7.132;2022-09-28T13:35:17;14.40;60.40
4107;DHT22;21906;50.812;7.132;2022-09-28T13:37:47;14.40;60.60
4107;DHT22;21906;50.812;7.132;2022-09-28T13:40:13;14.40;61.30
4107;DHT22;21906;50.812;7.132;2022-09-28T13:50:41;14.50;60.60
4107;DHT22;21906;50.812;7.132;2022-09-28T13:56:04;14.60;60.60
4107;DHT22;21906;50.812;7.132;2022-09-28T14:04:11;14.50;61.90
4107;DHT22;21906;50.812;7.132;2022-09-28T14:06:41;14.50;61.60
4107;DHT22;21906;50.812;7.132;2022-09-28T14:09:38;14.60;62.30
4107;DHT22;21906;50.812;7.132;2022-09-28T14:14:55;14.90;61.40
4107;DHT22;21906;50.812;7.132;2022-09-28T14:20:12;14.90;61.60
4107;DHT22;21906;50.812;7.132;2022-09-28T14:25:35;14.90;60.40
4107;DHT22;21906;50.812;7.132;2022-09-28T14:30:49;14.90;59.30
4107;DHT22;21906;50.812;7.132;2022-09-28T14:35:55;15.00;59.70
4107;DHT22;21906;50.812;7.132;2022-09-28T14:38:45;15.00;60.00
4107;DHT22;21906;50.812;7.132;2022-09-28T14:41:35;15.30;60.50
4107;DHT22;21906;50.812;7.132;2022-09-28T14:44:13;15.50;58.80
4107;DHT22;21906;50.812;7.132;2022-09-28T14:46:44;15.70;58.50
4107;DHT22;21906;50.812;7.132;2022-09-28T14:57:17;16.20;54.50
4107;DHT22;21906;50.812;7.132;2022-09-28T14:59:44;16.20;55.10
4107;DHT22;21906;50.812;7.132;2022-09-28T15:04:50;16.10;54.50
4107;DHT22;21906;50.812;7.132;2022-09-28T15:07:50;16.10;55.20
4107;DHT22;21906;50.812;7.132;2022-09-28T15:10:34;16.00;55.70
4107;DHT22;21906;50.812;7.132;2022-09-28T15:13:14;16.20;54.90
4107;DHT22;21906;50.812;7.132;2022-09-28T15:15:44;16.10;54.50
4107;DHT22;21906;50.812;7.132;2022-09-28T15:20:48;16.00;55.40
4107;DHT22;21906;50.812;7.132;2022-09-28T15:23:33;15.70;55.30
4107;DHT22;21906;50.812;7.132;2022-09-28T15:26:00;15.50;56.00
4107;DHT22;21906;50.812;7.132;2022-09-28T15:28:25;15.40;57.30
4107;DHT22;21906;50.812;7.132;2022-09-28T15:31:00;15.30;57.90
4107;DHT22;21906;50.812;7.132;2022-09-28T15:33:31;15.40;58.50
4107;DHT22;21906;50.812;7.132;2022-09-28T15:36:25;15.40;58.70
4107;DHT22;21906;50.812;7.132;2022-09-28T15:39:00;15.40;59.20
4107;DHT22;21906;50.812;7.132;2022-09-28T15:41:27;15.30;58.80
4107;DHT22;21906;50.812;7.132;2022-09-28T15:46:42;15.00;58.30
4107;DHT22;21906;50.812;7.132;2022-09-28T15:52:19;15.00;57.10
4107;DHT22;21906;50.812;7.132;2022-09-28T15:54:46;14.90;57.10
4107;DHT22;21906;50.812;7.132;2022-09-28T15:59:58;14.80;57.90
4107;DHT22;21906;50.812;7.132;2022-09-28T16:02:25;14.60;58.90
4107;DHT22;21906;50.812;7.132;2022-09-28T16:04:54;14.60;59.80
4107;DHT22;21906;50.812;7.132;2022-09-28T16:12:46;14.20;58.30
4107;DHT22;21906;50.812;7.132;2022-09-28T16:15:20;14.00;59.40
4107;DHT22;21906;50.812;7.132;2022-09-28T16:17:57;13.70;61.60
4107;DHT22;21906;50.812;7.132;2022-09-28T16:20:30;13.50;62.80
4107;DHT22;21906;50.812;7.132;2022-09-28T16:23:01;13.40;64.10
4107;DHT22;21906;50.812;7.132;2022-09-28T16:25:34;13.40;65.00
4107;DHT22;21906;50.812;7.132;2022-09-28T16:28:03;13.30;66.00
4107;DHT22;21906;50.812;7.132;2022-09-28T16:30:30;13.20;66.80
4107;DHT22;21906;50.812;7.132;2022-09-28T16:33:02;13.20;66.90
4107;DHT22;21906;50.812;7.132;2022-09-28T16:38:11;13.10;70.70
4107;DHT22;21906;50.812;7.132;2022-09-28T16:40:48;13.10;69.30
4107;DHT22;21906;50.812;7.132;2022-09-28T16:43:25;13.00;68.90
4107;DHT22;21906;50.812;7.132;2022-09-28T16:45:57;13.00;70.20
4107;DHT22;21906;50.812;7.132;2022-09-28T16:48:28;12.90;71.70
4107;DHT22;21906;50.812;7.132;2022-09-28T16:50:55;12.80;72.10
4107;DHT22;21906;50.812;7.132;2022-09-28T16:53:20;12.70;71.70
4107;DHT22;21906;50.812;7.132;2022-09-28T16:56:05;12.80;71.30
4107;DHT22;21906;50.812;7.132;2022-09-28T16:58:31;12.90;71.70
4107;DHT22;21906;50.812;7.132;2022-09-28T17:00:58;12.70;72.10
4107;DHT22;21906;50.812;7.132;2022-09-28T17:03:25;12.80;72.30
4107;DHT22;21906;50.812;7.132;2022-09-28T17:05:51;12.80;72.50
4107;DHT22;21906;50.812;7.132;2022-09-28T17:08:19;12.70;72.70
4107;DHT22;21906;50.812;7.132;2022-09-28T17:10:57;12.80;73.30
4107;DHT22;21906;50.812;7.132;2022-09-28T17:13:28;12.70;73.70
4107;DHT22;21906;50.812;7.132;2022-09-28T17:16:09;12.70;74.20
4107;DHT22;21906;50.812;7.132;2022-09-28T17:18:36;12.60;74.40
4107;DHT22;21906;50.812;7.132;2022-09-28T17:21:25;12.70;74.20
4107;DHT22;21906;50.812;7.132;2022-09-28T17:23:50;12.60;73.50
4107;DHT22;21906;50.812;7.132;2022-09-28T17:26:21;12.60;73.30
4107;DHT22;21906;50.812;7.132;2022-09-28T17:28:48;12.60;71.90
4107;DHT22;21906;50.812;7.132;2022-09-28T17:31:15;12.60;72.00
4107;DHT22;21906;50.812;7.132;2022-09-28T17:33:41;12.50;72.10
4107;DHT22;21906;50.812;7.132;2022-09-28T17:36:14;12.50;71.20
4107;DHT22;21906;50.812;7.132;2022-09-28T17:38:40;12.40;71.70
4107;DHT22;21906;50.812;7.132;2022-09-28T17:41:14;12.40;72.10
4107;DHT22;21906;50.812;7.132;2022-09-28T17:43:40;12.40;72.00
4107;DHT22;21906;50.812;7.132;2022-09-28T17:46:33;12.40;71.80
4107;DHT22;21906;50.812;7.132;2022-09-28T17:49:02;12.40;72.40
4107;DHT22;21906;50.812;7.132;2022-09-28T17:51:30;12.40;71.90
4107;DHT22;21906;50.812;7.132;2022-09-28T17:53:57;12.50;71.50
4107;DHT22;21906;50.812;7.132;2022-09-28T17:56:25;12.50;71.50
4107;DHT22;21906;50.812;7.132;2022-09-28T17:58:51;12.60;71.60
4107;DHT22;21906;50.812;7.132;2022-09-28T18:01:18;12.50;71.90
4107;DHT22;21906;50.812;7.132;2022-09-28T18:03:43;12.50;72.20
4107;DHT22;21906;50.812;7.132;2022-09-28T18:06:14;12.60;72.40
4107;DHT22;21906;50.812;7.132;2022-09-28T18:08:41;12.60;72.70
4107;DHT22;21906;50.812;7.132;2022-09-28T18:11:08;12.60;72.50
4107;DHT22;21906;50.812;7.132;2022-09-28T18:13:34;12.50;72.90
4107;DHT22;21906;50.812;7.132;2022-09-28T18:16:01;12.40;73.20
4107;DHT22;21906;50.812;7.132;2022-09-28T18:18:27;12.50;73.60
4107;DHT22;21906;50.812;7.132;2022-09-28T18:20:53;12.60;74.20
4107;DHT22;21906;50.812;7.132;2022-09-28T18:23:18;12.60;74.40
4107;DHT22;21906;50.812;7.132;2022-09-28T18:25:45;12.60;74.70
4107;DHT22;21906;50.812;7.132;2022-09-28T18:28:11;12.70;75.20
4107;DHT22;21906;50.812;7.132;2022-09-28T18:30:39;12.70;75.30
4107;DHT22;21906;50.812;7.132;2022-09-28T18:33:06;12.60;75.80
4107;DHT22;21906;50.812;7.132;2022-09-28T18:35:31;12.60;76.00
4107;DHT22;21906;50.812;7.132;2022-09-28T18:37:57;12.70;76.10
4107;DHT22;21906;50.812;7.132;2022-09-28T18:40:23;12.60;76.30
4107;DHT22;21906;50.812;7.132;2022-09-28T18:42:50;12.60;76.10
4107;DHT22;21906;50.812;7.132;2022-09-28T18:45:16;12.50;76.10
4107;DHT22;21906;50.812;7.132;2022-09-28T18:47:43;12.60;76.00
4107;DHT22;21906;50.812;7.132;2022-09-28T18:50:10;12.60;76.20
4107;DHT22;21906;50.812;7.132;2022-09-28T18:52:43;12.60;76.20
4107;DHT22;21906;50.812;7.132;2022-09-28T18:55:10;12.50;76.10
4107;DHT22;21906;50.812;7.132;2022-09-28T18:57:37;12.50;76.10
4107;DHT22;21906;50.812;7.132;2022-09-28T19:00:07;12.50;76.10
4107;DHT22;21906;50.812;7.132;2022-09-28T19:02:34;12.40;76.40
4107;DHT22;21906;50.812;7.132;2022-09-28T19:05:00;12.50;76.50
4107;DHT22;21906;50.812;7.132;2022-09-28T19:07:26;12.40;76.60
4107;DHT22;21906;50.812;7.132;2022-09-28T19:09:51;12.40;76.70
4107;DHT22;21906;50.812;7.132;2022-09-28T19:12:18;12.40;76.70
4107;DHT22;21906;50.812;7.132;2022-09-28T19:14:44;12.40;76.70
4107;DHT22;21906;50.812;7.132;2022-09-28T19:17:10;12.40;76.70
4107;DHT22;21906;50.812;7.132;2022-09-28T19:19:36;12.40;76.60
4107;DHT22;21906;50.812;7.132;2022-09-28T19:22:02;12.40;77.00
4107;DHT22;21906;50.812;7.132;2022-09-28T19:24:28;12.40;77.10